sensor_id;sensor_type;location;lat;lon;timestamp;pressure;altitude;pressure_sealevel;temperature;humidity
35655;BME280;21773;50.010;19.972;2022-12-20T00:01:42;99742.78;;;2.82;46.84
35655;BME280;21773;50.010;19.972;2022-12-20T00:04:47;99746.34;;;2.91;47.52
35655;BME280;21773;50.010;19.972;2022-12-20T00:07:50;99743.94;;;2.97;47.74
35655;BME280;21773;50.010;19.972;2022-12-20T00:10:54;99742.19;;;3.06;47.81
35655;BME280;21773;50.010;19.972;2022-12-20T00:13:57;99741.78;;;3.19;47.78
35655;BME280;21773;50.010;19.972;2022-12-20T00:17:01;99747.34;;;3.25;47.18
35655;BME280;21773;50.010;19.972;2022-12-20T00:20:07;99748.38;;;3.32;47.63
35655;BME280;21773;50.010;19.972;2022-12-20T00:23:11;99752.81;;;3.41;47.93
35655;BME280;21773;50.010;19.972;2022-12-20T00:26:16;99739.72;;;3.30;48.51
35655;BME280;21773;50.010;19.972;2022-12-20T00:29:20;99748.09;;;3.35;48.52
35655;BME280;21773;50.010;19.972;2022-12-20T00:32:23;99743.59;;;3.36;48.62
35655;BME280;21773;50.010;19.972;2022-12-20T00:35:28;99754.78;;;3.39;48.63
35655;BME280;21773;50.010;19.972;2022-12-20T00:38:34;99756.66;;;3.47;48.56
35655;BME280;21773;50.010;19.972;2022-12-20T00:41:37;99760.00;;;3.49;48.76
35655;BME280;21773;50.010;19.972;2022-12-20T00:44:41;99758.56;;;3.55;48.24
35655;BME280;21773;50.010;19.972;2022-12-20T00:47:44;99763.41;;;3.59;48.57
35655;BME280;21773;50.010;19.972;2022-12-20T00:50:49;99770.13;;;3.63;48.40
35655;BME280;21773;50.010;19.972;2022-12-20T00:53:53;99759.44;;;3.63;48.52
35655;BME280;21773;50.010;19.972;2022-12-20T00:56:56;99761.34;;;3.71;48.74
35655;BME280;21773;50.010;19.972;2022-12-20T01:00:00;99760.31;;;3.72;49.38
35655;BME280;21773;50.010;19.972;2022-12-20T01:03:03;99757.88;;;3.78;49.41
35655;BME280;21773;50.010;19.972;2022-12-20T01:06:08;99750.88;;;3.77;49.39
35655;BME280;21773;50.010;19.972;2022-12-20T01:09:12;99757.56;;;3.81;49.36
35655;BME280;21773;50.010;19.972;2022-12-20T01:12:16;99733.03;;;3.78;49.45
35655;BME280;21773;50.010;19.972;2022-12-20T01:15:20;99738.63;;;3.92;49.50
35655;BME280;21773;50.010;19.972;2022-12-20T01:18:23;99739.50;;;4.01;49.74
35655;BME280;21773;50.010;19.972;2022-12-20T01:21:28;99734.53;;;4.06;50.05
35655;BME280;21773;50.010;19.972;2022-12-20T01:24:31;99733.88;;;4.12;50.44
35655;BME280;21773;50.010;19.972;2022-12-20T01:27:35;99727.56;;;4.13;50.22
35655;BME280;21773;50.010;19.972;2022-12-20T01:30:39;99738.59;;;4.18;50.67
35655;BME280;21773;50.010;19.972;2022-12-20T01:33:43;99728.28;;;4.23;50.41
35655;BME280;21773;50.010;19.972;2022-12-20T01:36:49;99721.47;;;4.29;50.33
35655;BME280;21773;50.010;19.972;2022-12-20T01:39:52;99716.63;;;4.32;50.71
35655;BME280;21773;50.010;19.972;2022-12-20T01:42:56;99709.13;;;4.36;50.59
35655;BME280;21773;50.010;19.972;2022-12-20T01:46:00;99704.13;;;4.41;50.42
35655;BME280;21773;50.010;19.972;2022-12-20T01:49:07;99699.47;;;4.43;50.82
35655;BME280;21773;50.010;19.972;2022-12-20T01:52:14;99694.31;;;4.50;50.35
35655;BME280;21773;50.010;19.972;2022-12-20T01:55:22;99694.31;;;4.50;50.52
35655;BME280;21773;50.010;19.972;2022-12-20T01:58:28;99692.66;;;4.49;50.67
35655;BME280;21773;50.010;19.972;2022-12-20T02:01:33;99677.47;;;4.49;50.82
35655;BME280;21773;50.010;19.972;2022-12-20T02:04:37;99683.16;;;4.54;51.09
35655;BME280;21773;50.010;19.972;2022-12-20T02:07:42;99690.69;;;4.59;50.66
35655;BME280;21773;50.010;19.972;2022-12-20T02:11:08;99701.69;;;4.64;50.79
35655;BME280;21773;50.010;19.972;2022-12-20T02:14:28;99705.88;;;4.66;50.81
35655;BME280;21773;50.010;19.972;2022-12-20T02:17:43;99717.88;;;4.70;51.24
35655;BME280;21773;50.010;19.972;2022-12-20T02:20:57;99703.03;;;4.76;51.36
35655;BME280;21773;50.010;19.972;2022-12-20T02:27:51;99698.88;;;4.90;51.19
35655;BME280;21773;50.010;19.972;2022-12-20T02:31:01;99681.00;;;4.90;51.38
35655;BME280;21773;50.010;19.972;2022-12-20T02:34:08;99669.84;;;4.87;51.35
35655;BME280;21773;50.010;19.972;2022-12-20T02:37:12;99667.31;;;4.77;51.55
35655;BME280;21773;50.010;19.972;2022-12-20T02:40:19;99662.63;;;4.71;51.47
35655;BME280;21773;50.010;19.972;2022-12-20T02:43:25;99661.97;;;4.69;51.64
35655;BME280;21773;50.010;19.972;2022-12-20T02:46:49;99668.13;;;4.69;52.16
35655;BME280;21773;50.010;19.972;2022-12-20T02:49:56;99663.13;;;4.74;51.95
35655;BME280;21773;50.010;19.972;2022-12-20T02:53:00;99655.44;;;4.79;51.99
35655;BME280;21773;50.010;19.972;2022-12-20T02:56:08;99658.47;;;4.76;52.00
35655;BME280;21773;50.010;19.972;2022-12-20T02:59:20;99658.13;;;4.71;51.94
35655;BME280;21773;50.010;19.972;2022-12-20T03:02:28;99663.81;;;4.76;51.96
35655;BME280;21773;50.010;19.972;2022-12-20T03:05:55;99650.81;;;4.73;51.72
35655;BME280;21773;50.010;19.972;2022-12-20T03:08:59;99658.13;;;4.63;51.00
35655;BME280;21773;50.010;19.972;2022-12-20T03:12:05;99664.97;;;4.66;51.92
35655;BME280;21773;50.010;19.972;2022-12-20T03:15:11;99671.31;;;4.73;51.99
35655;BME280;21773;50.010;19.972;2022-12-20T03:18:16;99678.19;;;4.84;51.75
35655;BME280;21773;50.010;19.972;2022-12-20T03:21:20;99663.66;;;4.86;52.26
35655;BME280;21773;50.010;19.972;2022-12-20T03:24:24;99619.25;;;4.69;52.40
35655;BME280;21773;50.010;19.972;2022-12-20T03:27:28;99642.63;;;4.91;52.58
35655;BME280;21773;50.010;19.972;2022-12-20T03:30:33;99647.63;;;4.94;52.24
35655;BME280;21773;50.010;19.972;2022-12-20T03:33:38;99646.97;;;4.92;52.62
35655;BME280;21773;50.010;19.972;2022-12-20T03:36:42;99651.97;;;4.95;52.44
35655;BME280;21773;50.010;19.972;2022-12-20T03:39:45;99633.59;;;4.92;52.50
35655;BME280;21773;50.010;19.972;2022-12-20T03:42:49;99644.94;;;5.10;52.29
35655;BME280;21773;50.010;19.972;2022-12-20T03:45:53;99648.09;;;5.14;52.44
35655;BME280;21773;50.010;19.972;2022-12-20T03:48:59;99661.47;;;5.22;52.59
35655;BME280;21773;50.010;19.972;2022-12-20T03:52:03;99653.09;;;5.33;52.52
35655;BME280;21773;50.010;19.972;2022-12-20T03:55:08;99627.88;;;5.19;52.31
35655;BME280;21773;50.010;19.972;2022-12-20T03:58:15;99638.06;;;5.32;52.21
35655;BME280;21773;50.010;19.972;2022-12-20T04:01:21;99636.22;;;5.24;52.69
35655;BME280;21773;50.010;19.972;2022-12-20T04:04:27;99631.56;;;5.27;52.54
35655;BME280;21773;50.010;19.972;2022-12-20T04:07:31;99637.56;;;5.29;52.44
35655;BME280;21773;50.010;19.972;2022-12-20T04:10:34;99628.38;;;5.31;52.39
35655;BME280;21773;50.010;19.972;2022-12-20T04:14:01;99629.88;;;5.34;51.80
35655;BME280;21773;50.010;19.972;2022-12-20T04:17:05;99603.19;;;5.17;51.84
35655;BME280;21773;50.010;19.972;2022-12-20T04:20:13;99636.56;;;5.30;51.73
35655;BME280;21773;50.010;19.972;2022-12-20T04:23:35;99614.00;;;5.24;51.57
35655;BME280;21773;50.010;19.972;2022-12-20T04:26:40;99624.25;;;5.12;52.01
35655;BME280;21773;50.010;19.972;2022-12-20T04:29:45;99629.91;;;5.09;51.62
35655;BME280;21773;50.010;19.972;2022-12-20T04:32:51;99620.22;;;5.00;51.88
35655;BME280;21773;50.010;19.972;2022-12-20T04:35:58;99603.88;;;4.87;51.50
35655;BME280;21773;50.010;19.972;2022-12-20T04:39:03;99626.25;;;4.86;51.78
35655;BME280;21773;50.010;19.972;2022-12-20T04:42:16;99605.72;;;4.87;51.53
35655;BME280;21773;50.010;19.972;2022-12-20T04:45:20;99605.53;;;4.80;51.52
35655;BME280;21773;50.010;19.972;2022-12-20T04:48:26;99616.22;;;4.80;51.65
35655;BME280;21773;50.010;19.972;2022-12-20T04:51:51;99603.22;;;4.77;51.48
35655;BME280;21773;50.010;19.972;2022-12-20T04:54:55;99599.69;;;4.76;51.47
35655;BME280;21773;50.010;19.972;2022-12-20T04:58:02;99603.72;;;4.72;51.69
35655;BME280;21773;50.010;19.972;2022-12-20T05:01:12;99616.38;;;4.70;51.95
35655;BME280;21773;50.010;19.972;2022-12-20T05:04:21;99612.53;;;4.65;51.99
35655;BME280;21773;50.010;19.972;2022-12-20T05:07:26;99607.88;;;4.67;51.91
35655;BME280;21773;50.010;19.972;2022-12-20T05:10:30;99610.41;;;4.68;51.83
35655;BME280;21773;50.010;19.972;2022-12-20T05:13:36;99604.38;;;4.66;51.62
35655;BME280;21773;50.010;19.972;2022-12-20T05:16:41;99609.56;;;4.68;51.60
35655;BME280;21773;50.010;19.972;2022-12-20T05:19:45;99610.38;;;4.60;51.65
35655;BME280;21773;50.010;19.972;2022-12-20T05:22:51;99613.53;;;4.56;51.56
35655;BME280;21773;50.010;19.972;2022-12-20T05:26:12;99609.72;;;4.58;51.29
35655;BME280;21773;50.010;19.972;2022-12-20T05:29:23;99612.88;;;4.54;51.30
35655;BME280;21773;50.010;19.972;2022-12-20T05:32:27;99611.72;;;4.48;51.13
35655;BME280;21773;50.010;19.972;2022-12-20T05:35:31;99606.69;;;4.45;51.31
35655;BME280;21773;50.010;19.972;2022-12-20T05:38:43;99610.03;;;4.39;51.66
35655;BME280;21773;50.010;19.972;2022-12-20T05:41:50;99587.47;;;4.25;51.23
35655;BME280;21773;50.010;19.972;2022-12-20T05:44:58;99605.50;;;4.31;51.47
35655;BME280;21773;50.010;19.972;2022-12-20T05:48:04;99597.34;;;4.25;51.05
35655;BME280;21773;50.010;19.972;2022-12-20T05:51:12;99599.16;;;4.24;51.12
35655;BME280;21773;50.010;19.972;2022-12-20T05:54:31;99597.50;;;4.23;50.73
35655;BME280;21773;50.010;19.972;2022-12-20T05:57:45;99619.19;;;4.28;51.07
35655;BME280;21773;50.010;19.972;2022-12-20T06:00:54;99607.53;;;4.29;50.86
35655;BME280;21773;50.010;19.972;2022-12-20T06:03:59;99601.50;;;4.35;50.59
35655;BME280;21773;50.010;19.972;2022-12-20T06:07:04;99609.19;;;4.39;50.66
35655;BME280;21773;50.010;19.972;2022-12-20T06:10:10;99601.84;;;4.32;50.54
35655;BME280;21773;50.010;19.972;2022-12-20T06:13:25;99597.84;;;4.36;50.80
35655;BME280;21773;50.010;19.972;2022-12-20T06:16:29;99594.16;;;4.38;50.78
35655;BME280;21773;50.010;19.972;2022-12-20T06:19:33;99598.19;;;4.33;51.02
35655;BME280;21773;50.010;19.972;2022-12-20T06:22:36;99604.50;;;4.41;50.87
35655;BME280;21773;50.010;19.972;2022-12-20T06:25:42;99593.69;;;4.42;51.14
35655;BME280;21773;50.010;19.972;2022-12-20T06:28:46;99603.84;;;4.47;51.08
35655;BME280;21773;50.010;19.972;2022-12-20T06:32:01;99592.53;;;4.53;51.38
35655;BME280;21773;50.010;19.972;2022-12-20T06:35:07;99589.16;;;4.51;51.69
35655;BME280;21773;50.010;19.972;2022-12-20T06:38:11;99580.50;;;4.57;51.45
35655;BME280;21773;50.010;19.972;2022-12-20T06:41:16;99578.81;;;4.56;51.70
35655;BME280;21773;50.010;19.972;2022-12-20T06:44:20;99554.63;;;4.33;51.92
35655;BME280;21773;50.010;19.972;2022-12-20T06:47:24;99576.31;;;4.46;52.13
35655;BME280;21773;50.010;19.972;2022-12-20T06:50:28;99576.50;;;4.53;52.19
35655;BME280;21773;50.010;19.972;2022-12-20T06:53:32;99582.81;;;4.60;52.11
35655;BME280;21773;50.010;19.972;2022-12-20T06:56:36;99595.69;;;4.72;51.55
35655;BME280;21773;50.010;19.972;2022-12-20T06:59:45;99583.50;;;4.78;51.59
35655;BME280;21773;50.010;19.972;2022-12-20T07:02:48;99580.16;;;4.76;51.42
35655;BME280;21773;50.010;19.972;2022-12-20T07:05:52;99590.34;;;4.97;51.34
35655;BME280;21773;50.010;19.972;2022-12-20T07:08:56;99583.13;;;5.05;51.23
35655;BME280;21773;50.010;19.972;2022-12-20T07:12:01;99582.78;;;5.16;51.10
35655;BME280;21773;50.010;19.972;2022-12-20T07:15:05;99567.06;;;5.13;50.60
35655;BME280;21773;50.010;19.972;2022-12-20T07:18:08;99548.38;;;5.21;50.05
35655;BME280;21773;50.010;19.972;2022-12-20T07:21:12;99577.72;;;5.46;49.89
35655;BME280;21773;50.010;19.972;2022-12-20T07:24:18;99585.31;;;5.65;49.51
35655;BME280;21773;50.010;19.972;2022-12-20T07:27:22;99589.94;;;5.79;49.18
35655;BME280;21773;50.010;19.972;2022-12-20T07:30:26;99591.56;;;5.96;48.81
35655;BME280;21773;50.010;19.972;2022-12-20T07:33:31;99587.78;;;6.14;48.40
35655;BME280;21773;50.010;19.972;2022-12-20T07:36:34;99593.59;;;6.25;48.11
35655;BME280;21773;50.010;19.972;2022-12-20T07:39:37;99596.38;;;6.32;47.54
35655;BME280;21773;50.010;19.972;2022-12-20T07:42:45;99587.41;;;6.47;47.37
35655;BME280;21773;50.010;19.972;2022-12-20T07:45:53;99592.41;;;6.73;46.96
35655;BME280;21773;50.010;19.972;2022-12-20T07:48:57;99586.31;;;7.17;46.06
35655;BME280;21773;50.010;19.972;2022-12-20T07:52:01;99563.09;;;7.68;44.77
35655;BME280;21773;50.010;19.972;2022-12-20T07:55:06;99573.63;;;8.56;42.66
35655;BME280;21773;50.010;19.972;2022-12-20T07:58:13;99592.69;;;9.66;40.76
35655;BME280;21773;50.010;19.972;2022-12-20T08:01:21;99583.34;;;10.76;39.13
35655;BME280;21773;50.010;19.972;2022-12-20T08:04:27;99580.88;;;11.21;37.79
35655;BME280;21773;50.010;19.972;2022-12-20T08:07:32;99581.09;;;11.06;37.76
35655;BME280;21773;50.010;19.972;2022-12-20T08:10:36;99587.72;;;10.91;37.61
35655;BME280;21773;50.010;19.972;2022-12-20T08:13:42;99579.22;;;10.94;37.72
35655;BME280;21773;50.010;19.972;2022-12-20T08:16:49;99584.00;;;10.78;37.80
35655;BME280;21773;50.010;19.972;2022-12-20T08:19:53;99583.53;;;10.62;38.18
35655;BME280;21773;50.010;19.972;2022-12-20T08:22:58;99575.84;;;10.39;38.66
35655;BME280;21773;50.010;19.972;2022-12-20T08:26:01;99569.25;;;10.88;38.02
35655;BME280;21773;50.010;19.972;2022-12-20T08:29:06;99569.56;;;11.83;36.62
35655;BME280;21773;50.010;19.972;2022-12-20T08:32:10;99569.59;;;12.59;35.40
35655;BME280;21773;50.010;19.972;2022-12-20T08:35:15;99569.91;;;13.00;34.53
35655;BME280;21773;50.010;19.972;2022-12-20T08:38:18;99572.78;;;12.81;34.19
35655;BME280;21773;50.010;19.972;2022-12-20T08:41:22;99568.78;;;12.58;35.00
35655;BME280;21773;50.010;19.972;2022-12-20T08:44:27;99577.44;;;12.36;35.35
35655;BME280;21773;50.010;19.972;2022-12-20T08:47:31;99576.22;;;11.87;36.11
35655;BME280;21773;50.010;19.972;2022-12-20T08:50:34;99567.56;;;11.46;36.56
35655;BME280;21773;50.010;19.972;2022-12-20T08:53:38;99565.50;;;11.35;37.16
35655;BME280;21773;50.010;19.972;2022-12-20T08:56:42;99554.16;;;11.84;36.69
35655;BME280;21773;50.010;19.972;2022-12-20T08:59:47;99567.78;;;12.08;36.09
35655;BME280;21773;50.010;19.972;2022-12-20T09:02:50;99569.81;;;12.26;35.94
35655;BME280;21773;50.010;19.972;2022-12-20T09:05:56;99563.94;;;12.36;35.30
35655;BME280;21773;50.010;19.972;2022-12-20T09:08:59;99555.75;;;12.42;34.99
35655;BME280;21773;50.010;19.972;2022-12-20T09:12:03;99543.38;;;12.28;35.39
35655;BME280;21773;50.010;19.972;2022-12-20T09:15:09;99558.56;;;12.23;35.47
35655;BME280;21773;50.010;19.972;2022-12-20T09:18:12;99555.00;;;12.29;35.63
35655;BME280;21773;50.010;19.972;2022-12-20T09:21:16;99537.28;;;12.01;35.70
35655;BME280;21773;50.010;19.972;2022-12-20T09:24:20;99537.56;;;11.80;36.28
35655;BME280;21773;50.010;19.972;2022-12-20T09:27:24;99541.56;;;11.58;36.62
35655;BME280;21773;50.010;19.972;2022-12-20T09:30:28;99529.94;;;11.44;36.60
35655;BME280;21773;50.010;19.972;2022-12-20T09:33:33;99547.97;;;11.63;36.91
35655;BME280;21773;50.010;19.972;2022-12-20T09:36:37;99536.59;;;12.12;36.26
35655;BME280;21773;50.010;19.972;2022-12-20T09:39:40;99530.06;;;12.89;35.09
35655;BME280;21773;50.010;19.972;2022-12-20T09:42:44;99527.75;;;13.54;33.58
35655;BME280;21773;50.010;19.972;2022-12-20T09:45:51;99531.47;;;13.78;33.65
35655;BME280;21773;50.010;19.972;2022-12-20T09:48:56;99540.03;;;13.57;33.22
35655;BME280;21773;50.010;19.972;2022-12-20T09:52:16;99531.91;;;13.38;33.75
35655;BME280;21773;50.010;19.972;2022-12-20T09:55:30;99525.50;;;13.69;33.37
35655;BME280;21773;50.010;19.972;2022-12-20T09:58:53;99520.63;;;13.60;33.39
35655;BME280;21773;50.010;19.972;2022-12-20T10:02:00;99522.50;;;13.41;33.62
35655;BME280;21773;50.010;19.972;2022-12-20T10:05:29;99522.69;;;12.96;34.47
35655;BME280;21773;50.010;19.972;2022-12-20T10:08:44;99522.97;;;12.64;35.18
35655;BME280;21773;50.010;19.972;2022-12-20T10:12:00;99525.56;;;12.14;35.90
35655;BME280;21773;50.010;19.972;2022-12-20T10:15:18;99516.00;;;11.60;36.51
35655;BME280;21773;50.010;19.972;2022-12-20T10:18:35;99523.97;;;11.36;37.03
35655;BME280;21773;50.010;19.972;2022-12-20T10:21:48;99529.56;;;11.34;37.43
35655;BME280;21773;50.010;19.972;2022-12-20T10:24:58;99519.53;;;11.61;36.85
35655;BME280;21773;50.010;19.972;2022-12-20T10:28:10;99513.63;;;11.90;36.75
35655;BME280;21773;50.010;19.972;2022-12-20T10:31:15;99485.47;;;12.11;36.24
35655;BME280;21773;50.010;19.972;2022-12-20T10:34:22;99467.66;;;12.28;35.67
35655;BME280;21773;50.010;19.972;2022-12-20T10:37:25;99471.66;;;12.26;36.15
35655;BME280;21773;50.010;19.972;2022-12-20T10:40:31;99468.91;;;11.94;36.40
35655;BME280;21773;50.010;19.972;2022-12-20T10:43:59;99440.75;;;11.77;36.96
35655;BME280;21773;50.010;19.972;2022-12-20T10:47:22;99425.94;;;12.42;36.16
35655;BME280;21773;50.010;19.972;2022-12-20T10:50:29;99416.66;;;12.81;35.41
35655;BME280;21773;50.010;19.972;2022-12-20T10:53:34;99403.59;;;12.78;35.19
35655;BME280;21773;50.010;19.972;2022-12-20T10:56:37;99411.31;;;12.75;35.35
35655;BME280;21773;50.010;19.972;2022-12-20T10:59:48;99399.38;;;12.82;35.32
35655;BME280;21773;50.010;19.972;2022-12-20T11:03:03;99399.91;;;12.91;35.39
35655;BME280;21773;50.010;19.972;2022-12-20T11:06:15;99395.50;;;13.15;34.71
35655;BME280;21773;50.010;19.972;2022-12-20T11:09:24;99409.38;;;13.00;34.79
35655;BME280;21773;50.010;19.972;2022-12-20T11:12:28;99402.69;;;13.02;34.91
35655;BME280;21773;50.010;19.972;2022-12-20T11:15:33;99408.28;;;13.08;35.10
35655;BME280;21773;50.010;19.972;2022-12-20T11:18:43;99412.25;;;13.05;35.16
35655;BME280;21773;50.010;19.972;2022-12-20T11:22:01;99414.09;;;13.11;35.06
35655;BME280;21773;50.010;19.972;2022-12-20T11:25:30;99411.53;;;13.16;34.98
35655;BME280;21773;50.010;19.972;2022-12-20T11:28:50;99409.84;;;12.97;35.45
35655;BME280;21773;50.010;19.972;2022-12-20T11:32:03;99396.19;;;12.67;35.79
35655;BME280;21773;50.010;19.972;2022-12-20T11:35:13;99410.19;;;12.08;36.56
35655;BME280;21773;50.010;19.972;2022-12-20T11:38:30;99411.31;;;11.56;37.60
35655;BME280;21773;50.010;19.972;2022-12-20T11:41:44;99404.47;;;11.02;38.65
35655;BME280;21773;50.010;19.972;2022-12-20T11:44:59;99425.25;;;10.82;39.29
35655;BME280;21773;50.010;19.972;2022-12-20T11:48:36;99403.72;;;10.42;40.09
35655;BME280;21773;50.010;19.972;2022-12-20T11:51:44;99390.63;;;10.13;40.58
35655;BME280;21773;50.010;19.972;2022-12-20T11:54:57;99369.25;;;9.66;41.28
35655;BME280;21773;50.010;19.972;2022-12-20T11:58:11;99378.72;;;9.48;42.25
35655;BME280;21773;50.010;19.972;2022-12-20T12:01:24;99383.88;;;9.43;42.56
35655;BME280;21773;50.010;19.972;2022-12-20T12:04:31;99382.56;;;9.26;43.07
35655;BME280;21773;50.010;19.972;2022-12-20T12:07:38;99380.63;;;9.07;43.59
35655;BME280;21773;50.010;19.972;2022-12-20T12:10:51;99376.88;;;9.01;44.05
35655;BME280;21773;50.010;19.972;2022-12-20T12:13:58;99376.84;;;8.95;44.25
35655;BME280;21773;50.010;19.972;2022-12-20T12:17:08;99368.94;;;8.87;44.17
35655;BME280;21773;50.010;19.972;2022-12-20T12:20:23;99364.13;;;8.76;44.66
35655;BME280;21773;50.010;19.972;2022-12-20T12:23:32;99362.06;;;8.78;45.06
35655;BME280;21773;50.010;19.972;2022-12-20T12:26:40;99351.69;;;8.68;44.98
35655;BME280;21773;50.010;19.972;2022-12-20T12:29:44;99349.00;;;8.68;45.12
35655;BME280;21773;50.010;19.972;2022-12-20T12:32:52;99349.16;;;8.60;45.20
35655;BME280;21773;50.010;19.972;2022-12-20T12:36:12;99343.97;;;8.58;45.48
35655;BME280;21773;50.010;19.972;2022-12-20T12:39:42;99338.97;;;8.49;46.03
35655;BME280;21773;50.010;19.972;2022-12-20T12:43:07;99339.56;;;8.51;45.74
35655;BME280;21773;50.010;19.972;2022-12-20T12:46:18;99324.03;;;8.40;45.81
35655;BME280;21773;50.010;19.972;2022-12-20T12:49:27;99326.50;;;8.41;45.98
35655;BME280;21773;50.010;19.972;2022-12-20T12:52:42;99330.19;;;8.34;46.12
35655;BME280;21773;50.010;19.972;2022-12-20T12:55:48;99332.44;;;8.30;46.04
35655;BME280;21773;50.010;19.972;2022-12-20T12:59:20;99338.66;;;8.31;46.10
35655;BME280;21773;50.010;19.972;2022-12-20T13:02:33;99324.28;;;8.23;46.39
35655;BME280;21773;50.010;19.972;2022-12-20T13:05:37;99351.84;;;8.60;46.11
35655;BME280;21773;50.010;19.972;2022-12-20T13:08:47;99361.06;;;8.79;45.65
35655;BME280;21773;50.010;19.972;2022-12-20T13:11:52;99359.31;;;8.99;45.27
35655;BME280;21773;50.010;19.972;2022-12-20T13:15:47;99350.50;;;9.31;44.56
35655;BME280;21773;50.010;19.972;2022-12-20T13:19:10;99349.53;;;9.45;44.24
35655;BME280;21773;50.010;19.972;2022-12-20T13:22:19;99344.31;;;9.31;44.06
35655;BME280;21773;50.010;19.972;2022-12-20T13:25:27;99351.31;;;9.25;44.47
35655;BME280;21773;50.010;19.972;2022-12-20T13:28:44;99350.63;;;9.10;44.37
35655;BME280;21773;50.010;19.972;2022-12-20T13:31:50;99347.94;;;9.03;44.83
35655;BME280;21773;50.010;19.972;2022-12-20T13:34:56;99337.69;;;8.86;45.05
35655;BME280;21773;50.010;19.972;2022-12-20T13:38:00;99336.16;;;8.70;45.56
35655;BME280;21773;50.010;19.972;2022-12-20T13:41:15;99324.53;;;8.56;45.95
35655;BME280;21773;50.010;19.972;2022-12-20T13:44:41;99324.06;;;8.46;46.12
35655;BME280;21773;50.010;19.972;2022-12-20T13:47:48;99317.31;;;8.29;46.59
35655;BME280;21773;50.010;19.972;2022-12-20T13:50:56;99323.06;;;8.26;46.66
35655;BME280;21773;50.010;19.972;2022-12-20T13:54:02;99319.69;;;8.17;46.81
35655;BME280;21773;50.010;19.972;2022-12-20T13:57:06;99336.88;;;8.23;46.60
35655;BME280;21773;50.010;19.972;2022-12-20T14:00:15;99335.63;;;8.19;46.75
35655;BME280;21773;50.010;19.972;2022-12-20T14:03:23;99342.66;;;8.20;47.03
35655;BME280;21773;50.010;19.972;2022-12-20T14:06:27;99339.09;;;8.13;46.85
35655;BME280;21773;50.010;19.972;2022-12-20T14:09:33;99347.53;;;8.10;47.47
35655;BME280;21773;50.010;19.972;2022-12-20T14:12:41;99356.22;;;8.12;47.32
35655;BME280;21773;50.010;19.972;2022-12-20T14:15:47;99353.75;;;8.10;47.53
35655;BME280;21773;50.010;19.972;2022-12-20T14:19:01;99353.34;;;8.13;47.36
35655;BME280;21773;50.010;19.972;2022-12-20T14:22:05;99346.53;;;8.11;47.42
35655;BME280;21773;50.010;19.972;2022-12-20T14:25:11;99336.16;;;8.08;47.47
35655;BME280;21773;50.010;19.972;2022-12-20T14:28:27;99353.63;;;7.97;47.83
35655;BME280;21773;50.010;19.972;2022-12-20T14:31:37;99350.50;;;7.94;47.93
35655;BME280;21773;50.010;19.972;2022-12-20T14:34:42;99346.53;;;7.90;48.19
35655;BME280;21773;50.010;19.972;2022-12-20T14:37:52;99335.72;;;7.83;48.08
35655;BME280;21773;50.010;19.972;2022-12-20T14:40:55;99346.69;;;7.81;48.28
35655;BME280;21773;50.010;19.972;2022-12-20T14:44:03;99356.78;;;7.79;48.11
35655;BME280;21773;50.010;19.972;2022-12-20T14:47:14;99357.75;;;7.72;48.48
35655;BME280;21773;50.010;19.972;2022-12-20T14:50:25;99350.19;;;7.61;48.80
35655;BME280;21773;50.010;19.972;2022-12-20T14:53:30;99376.63;;;7.64;48.93
35655;BME280;21773;50.010;19.972;2022-12-20T14:56:33;99373.34;;;7.62;48.92
35655;BME280;21773;50.010;19.972;2022-12-20T14:59:37;99382.41;;;7.61;49.04
35655;BME280;21773;50.010;19.972;2022-12-20T15:02:45;99369.34;;;7.58;49.11
35655;BME280;21773;50.010;19.972;2022-12-20T15:05:54;99372.03;;;7.58;48.96
35655;BME280;21773;50.010;19.972;2022-12-20T15:08:57;99368.06;;;7.54;49.59
35655;BME280;21773;50.010;19.972;2022-12-20T15:12:01;99345.50;;;7.48;49.65
35655;BME280;21773;50.010;19.972;2022-12-20T15:15:10;99348.19;;;7.48;49.59
35655;BME280;21773;50.010;19.972;2022-12-20T15:18:30;99350.44;;;7.45;49.71
35655;BME280;21773;50.010;19.972;2022-12-20T15:21:36;99344.19;;;7.37;49.90
35655;BME280;21773;50.010;19.972;2022-12-20T15:24:43;99341.03;;;7.34;50.01
35655;BME280;21773;50.010;19.972;2022-12-20T15:27:46;99340.66;;;7.37;50.07
35655;BME280;21773;50.010;19.972;2022-12-20T15:30:51;99337.19;;;7.43;50.04
35655;BME280;21773;50.010;19.972;2022-12-20T15:33:55;99337.19;;;7.43;50.09
35655;BME280;21773;50.010;19.972;2022-12-20T15:37:01;99317.47;;;7.29;50.06
35655;BME280;21773;50.010;19.972;2022-12-20T15:40:05;99336.44;;;7.49;49.81
35655;BME280;21773;50.010;19.972;2022-12-20T15:43:12;99342.66;;;7.50;49.95
35655;BME280;21773;50.010;19.972;2022-12-20T15:46:16;99336.09;;;7.52;49.97
35655;BME280;21773;50.010;19.972;2022-12-20T15:49:21;99340.97;;;7.49;50.05
35655;BME280;21773;50.010;19.972;2022-12-20T15:52:26;99338.28;;;7.49;50.00
35655;BME280;21773;50.010;19.972;2022-12-20T15:55:29;99326.56;;;7.50;49.92
35655;BME280;21773;50.010;19.972;2022-12-20T15:58:40;99332.09;;;7.48;49.95
35655;BME280;21773;50.010;19.972;2022-12-20T16:01:44;99332.75;;;7.50;49.95
35655;BME280;21773;50.010;19.972;2022-12-20T16:04:48;99334.19;;;7.53;49.82
35655;BME280;21773;50.010;19.972;2022-12-20T16:07:52;99337.94;;;7.52;49.84
35655;BME280;21773;50.010;19.972;2022-12-20T16:10:56;99336.09;;;7.52;50.10
35655;BME280;21773;50.010;19.972;2022-12-20T16:14:01;99333.19;;;7.54;49.70
35655;BME280;21773;50.010;19.972;2022-12-20T16:17:04;99313.22;;;7.56;50.01
35655;BME280;21773;50.010;19.972;2022-12-20T16:20:08;99327.81;;;7.54;50.15
35655;BME280;21773;50.010;19.972;2022-12-20T16:23:16;99312.81;;;7.59;50.36
35655;BME280;21773;50.010;19.972;2022-12-20T16:26:21;99315.50;;;7.59;50.01
35655;BME280;21773;50.010;19.972;2022-12-20T16:29:26;99302.53;;;7.63;50.52
35655;BME280;21773;50.010;19.972;2022-12-20T16:32:29;99302.16;;;7.66;50.15
35655;BME280;21773;50.010;19.972;2022-12-20T16:35:34;99307.09;;;7.62;50.65